createdAt,value
2022-09-09T00:02:26.557Z,12.80
2022-09-09T00:04:53.031Z,13.00
2022-09-09T00:07:21.291Z,12.00
2022-09-09T00:12:44.494Z,14.50
2022-09-09T00:15:10.971Z,13.50
2022-09-09T00:17:38.200Z,15.00
2022-09-09T00:20:05.499Z,14.67
2022-09-09T00:22:31.852Z,6.00
2022-09-09T00:27:42.193Z,12.50
2022-09-09T00:30:09.456Z,13.67
2022-09-09T00:32:37.786Z,16.20
2022-09-09T00:35:06.095Z,14.00
2022-09-09T00:37:32.522Z,10.50
2022-09-09T00:42:43.951Z,13.67
2022-09-09T00:45:11.216Z,15.00
2022-09-09T00:47:38.475Z,15.00
2022-09-09T00:50:05.783Z,17.00
2022-09-09T00:52:34.161Z,15.00
2022-09-09T00:57:44.955Z,13.00
2022-09-09T01:00:12.265Z,15.67
2022-09-09T01:02:39.561Z,16.00
2022-09-09T01:05:06.854Z,13.33
2022-09-09T01:07:34.116Z,18.33
2022-09-09T01:12:55.328Z,14.67
2022-09-09T01:15:21.756Z,17.50
2022-09-09T01:17:48.175Z,17.50
2022-09-09T01:20:15.497Z,14.67
2022-09-09T01:22:43.834Z,16.20
2022-09-09T01:27:55.238Z,16.00
2022-09-09T01:30:22.496Z,15.67
2022-09-09T01:32:49.761Z,16.00
2022-09-09T01:35:18.089Z,14.80
2022-09-09T01:37:44.516Z,16.00
2022-09-09T01:42:56.533Z,17.33
2022-09-09T01:45:23.867Z,18.00
2022-09-09T01:47:51.169Z,16.33
2022-09-09T01:50:17.604Z,15.00
2022-09-09T01:52:44.896Z,17.00
2022-09-09T01:57:57.082Z,19.00
2022-09-09T02:00:24.348Z,16.33
2022-09-09T02:02:50.863Z,19.00
2022-09-09T02:05:18.223Z,18.00
2022-09-09T02:07:45.501Z,17.00
2022-09-09T02:12:56.837Z,19.67
2022-09-09T02:15:24.134Z,16.00
2022-09-09T02:17:50.673Z,18.50
2022-09-09T02:20:18.022Z,20.67
2022-09-09T02:22:45.383Z,17.00
2022-09-09T02:28:09.313Z,17.67
2022-09-09T02:30:36.676Z,18.00
2022-09-09T02:33:04.206Z,18.00
2022-09-09T02:35:30.655Z,22.00
2022-09-09T02:37:57.957Z,18.33
2022-09-09T02:43:20.432Z,18.33
2022-09-09T02:45:47.777Z,19.00
2022-09-09T02:48:14.240Z,18.00
2022-09-09T02:50:40.717Z,20.50
2022-09-09T02:53:08.085Z,21.00
2022-09-09T02:58:30.492Z,19.50
2022-09-09T03:00:57.039Z,21.00
2022-09-09T03:03:23.518Z,21.00
2022-09-09T03:05:49.945Z,17.50
2022-09-09T03:08:16.377Z,20.00
2022-09-09T03:13:37.739Z,19.50
2022-09-09T03:16:04.374Z,22.00
2022-09-09T03:18:31.835Z,20.00
2022-09-09T03:20:58.370Z,21.00
2022-09-09T03:23:25.746Z,22.00
2022-09-09T03:28:36.552Z,21.00
2022-09-09T03:31:03.070Z,23.00
2022-09-09T03:33:29.524Z,21.00
2022-09-09T03:35:55.951Z,20.00
2022-09-09T03:38:22.420Z,19.00
2022-09-09T03:43:34.745Z,21.00
2022-09-09T03:46:02.110Z,21.00
2022-09-09T03:48:29.589Z,17.67
2022-09-09T03:50:56.141Z,18.00
2022-09-09T03:53:22.568Z,18.50
2022-09-09T03:58:43.180Z,17.50
2022-09-09T04:01:10.601Z,19.00
2022-09-09T04:03:37.090Z,19.00
2022-09-09T04:06:03.496Z,19.00
2022-09-09T04:08:29.988Z,20.00
2022-09-09T04:13:42.475Z,19.67
2022-09-09T04:16:08.994Z,19.00
2022-09-09T04:18:36.423Z,15.00
2022-09-09T04:21:05.663Z,17.17
2022-09-09T04:23:32.921Z,15.33
2022-09-09T04:28:56.253Z,18.00
2022-09-09T04:31:22.734Z,15.00
2022-09-09T04:33:50.061Z,17.67
2022-09-09T04:36:16.596Z,15.00
2022-09-09T04:38:44.927Z,16.00
2022-09-09T04:43:57.877Z,15.40
2022-09-09T04:46:26.202Z,16.80
2022-09-09T04:48:53.446Z,14.00
2022-09-09T04:51:19.831Z,13.50
2022-09-09T04:53:46.256Z,13.50
2022-09-09T04:59:00.329Z,11.00
2022-09-09T05:01:26.927Z,12.50
2022-09-09T05:03:55.223Z,12.00
2022-09-09T05:06:21.704Z,13.00
2022-09-09T05:08:48.189Z,11.50
2022-09-09T05:14:00.372Z,13.60
2022-09-09T05:16:28.700Z,13.60
2022-09-09T05:18:55.222Z,12.00
2022-09-09T05:21:21.614Z,12.50
2022-09-09T05:23:48.086Z,14.00
2022-09-09T05:28:58.375Z,13.00
2022-09-09T05:31:29.329Z,11.40
2022-09-09T05:33:57.702Z,13.40
2022-09-09T05:36:24.156Z,13.00
2022-09-09T05:38:50.640Z,11.50
2022-09-09T05:44:03.901Z,12.67
2022-09-09T05:46:33.036Z,0.00
2022-09-09T05:49:02.824Z,11.40
2022-09-09T05:51:31.289Z,11.80
2022-09-09T05:53:59.839Z,13.20
2022-09-09T05:59:21.485Z,13.67
2022-09-09T06:01:48.185Z,11.00
2022-09-09T06:04:14.696Z,11.00
2022-09-09T06:06:42.982Z,11.60
2022-09-09T06:09:09.411Z,13.00
2022-09-09T06:14:29.778Z,11.00
2022-09-09T06:16:58.961Z,12.00
2022-09-09T06:19:25.363Z,12.00
2022-09-09T06:21:51.798Z,10.00
2022-09-09T06:24:20.061Z,8.80
2022-09-09T06:29:30.461Z,8.33
2022-09-09T06:31:56.964Z,10.00
2022-09-09T06:34:24.237Z,12.00
2022-09-09T06:36:50.684Z,10.50
2022-09-09T06:39:17.214Z,11.00
2022-09-09T06:44:29.485Z,12.50
2022-09-09T06:46:58.684Z,12.00
2022-09-09T06:49:25.148Z,11.50
2022-09-09T06:51:54.336Z,13.50
2022-09-09T06:54:22.599Z,11.20
2022-09-09T06:59:43.853Z,11.00
2022-09-09T07:02:12.196Z,11.80
2022-09-09T07:04:41.383Z,11.67
2022-09-09T07:07:07.854Z,13.00
2022-09-09T07:09:35.112Z,17.00
2022-09-09T07:14:56.937Z,15.33
2022-09-09T07:17:23.450Z,13.00
2022-09-09T07:19:52.642Z,13.00
2022-09-09T07:22:20.880Z,13.00
2022-09-09T07:24:49.162Z,14.40
2022-09-09T07:30:03.383Z,15.20
2022-09-09T07:32:30.598Z,14.33
2022-09-09T07:34:57.060Z,13.50
2022-09-09T07:37:24.316Z,15.00
2022-09-09T07:39:50.777Z,16.00
2022-09-09T07:45:12.930Z,14.00
2022-09-09T07:47:40.283Z,16.67
2022-09-09T07:50:07.555Z,14.67
2022-09-09T07:52:34.031Z,13.50
2022-09-09T07:55:01.616Z,15.00
2022-09-09T08:00:14.777Z,13.80
2022-09-09T08:02:42.106Z,16.67
2022-09-09T08:05:09.442Z,16.00
2022-09-09T08:07:36.731Z,15.00
2022-09-09T08:10:03.157Z,18.00
2022-09-09T08:15:13.894Z,17.50
2022-09-09T08:17:40.306Z,18.50
2022-09-09T08:20:07.636Z,15.67
2022-09-09T08:22:34.160Z,15.00
2022-09-09T08:25:01.428Z,17.00
2022-09-09T08:30:25.359Z,16.00
2022-09-09T08:32:53.934Z,14.67
2022-09-09T08:35:20.548Z,17.00
2022-09-09T08:37:51.598Z,15.00
2022-09-09T08:40:19.150Z,18.00
2022-09-09T08:45:40.315Z,20.00
2022-09-09T08:48:06.810Z,18.00
2022-09-09T08:50:34.067Z,18.33
2022-09-09T08:53:00.505Z,18.00
2022-09-09T08:55:27.813Z,19.33
2022-09-09T09:00:49.006Z,20.67
2022-09-09T09:03:15.466Z,18.00
2022-09-09T09:05:41.883Z,20.00
2022-09-09T09:08:08.335Z,18.50
2022-09-09T09:10:42.285Z,21.00
2022-09-09T09:15:54.431Z,20.00
2022-09-09T09:18:21.871Z,17.67
2022-09-09T09:20:49.200Z,20.00
2022-09-09T09:23:15.625Z,21.50
2022-09-09T09:25:42.992Z,22.67
2022-09-09T09:30:54.706Z,23.67
2022-09-09T09:33:22.218Z,22.33
2022-09-09T09:35:49.596Z,22.67
2022-09-09T09:41:03.429Z,22.50
2022-09-09T09:46:17.879Z,24.00
2022-09-09T09:48:44.720Z,23.00
2022-09-09T09:51:11.148Z,19.00
2022-09-09T09:53:38.587Z,24.67
2022-09-09T09:56:05.058Z,23.00
2022-09-09T10:01:26.730Z,26.33
2022-09-09T10:03:53.205Z,25.00
2022-09-09T10:06:20.624Z,25.50
2022-09-09T10:08:48.028Z,25.33
2022-09-09T10:11:15.416Z,27.50
2022-09-09T10:16:36.834Z,28.00
2022-09-09T10:19:05.012Z,29.25
2022-09-09T10:21:33.409Z,28.00
2022-09-09T10:24:00.184Z,27.50
2022-09-09T10:26:26.698Z,25.00
2022-09-09T10:31:37.138Z,30.50
2022-09-09T10:34:04.550Z,28.00
2022-09-09T10:36:31.041Z,29.50
2022-09-09T10:38:57.496Z,29.00
2022-09-09T10:41:24.013Z,26.50
2022-09-09T10:46:34.343Z,30.50
2022-09-09T10:49:00.934Z,30.00
2022-09-09T10:51:28.317Z,29.67
2022-09-09T10:53:54.795Z,30.50
2022-09-09T10:56:22.181Z,28.33
2022-09-09T11:01:43.600Z,28.00
2022-09-09T11:04:10.200Z,31.00
2022-09-09T11:06:36.750Z,32.00
2022-09-09T11:09:03.234Z,31.50
2022-09-09T11:11:29.691Z,31.50
2022-09-09T11:16:41.222Z,29.00
2022-09-09T11:19:07.692Z,30.00
2022-09-09T11:21:34.185Z,32.50
2022-09-09T11:24:01.602Z,35.67
2022-09-09T11:26:28.092Z,38.00
2022-09-09T11:28:54.567Z,36.00
2022-09-09T11:31:21.141Z,39.00
2022-09-09T11:33:48.551Z,38.67
2022-09-09T11:36:15.019Z,37.50
2022-09-09T11:38:41.457Z,37.00
2022-09-09T11:41:07.908Z,39.50
2022-09-09T11:43:35.302Z,38.00
2022-09-09T11:46:02.779Z,39.33
2022-09-09T11:48:30.260Z,39.00
2022-09-09T11:50:56.723Z,38.50
2022-09-09T11:53:23.209Z,38.00
2022-09-09T11:55:49.653Z,38.50
2022-09-09T11:58:17.094Z,36.00
2022-09-09T12:00:43.575Z,37.00
2022-09-09T12:03:10.066Z,39.00
2022-09-09T12:05:37.475Z,38.67
2022-09-09T12:08:03.953Z,39.00
2022-09-09T12:10:31.361Z,35.00
2022-09-09T12:12:58.777Z,36.00
2022-09-09T12:15:26.267Z,35.33
2022-09-09T12:17:53.689Z,35.67
2022-09-09T12:20:21.055Z,35.00
2022-09-09T12:22:48.465Z,36.00
2022-09-09T12:25:14.930Z,35.00
2022-09-09T12:27:42.428Z,33.00
2022-09-09T12:30:08.888Z,35.00
2022-09-09T12:32:36.258Z,36.00
2022-09-09T12:35:04.436Z,38.25
2022-09-09T12:37:31.803Z,35.33
2022-09-09T12:39:58.312Z,36.00
2022-09-09T12:42:24.785Z,36.50
2022-09-09T12:44:52.191Z,35.33
2022-09-09T12:47:18.659Z,36.50
2022-09-09T12:49:45.149Z,35.00
2022-09-09T12:52:11.608Z,35.50
2022-09-09T12:54:38.082Z,36.50
2022-09-09T12:57:04.553Z,38.00
2022-09-09T12:59:32.012Z,34.67
2022-09-09T13:04:52.582Z,36.00
2022-09-09T13:07:19.999Z,38.33
2022-09-09T13:09:47.366Z,35.00
2022-09-09T13:12:14.720Z,35.20
2022-09-09T13:14:41.171Z,35.00
2022-09-09T13:20:02.862Z,36.33
2022-09-09T13:22:29.339Z,36.50
2022-09-09T13:24:55.823Z,39.00
2022-09-09T13:27:23.232Z,38.00
2022-09-09T13:29:50.649Z,37.67
2022-09-09T13:35:13.061Z,37.67
2022-09-09T13:37:40.479Z,36.33
2022-09-09T13:40:07.059Z,38.00
2022-09-09T13:42:34.761Z,41.33
2022-09-09T13:45:01.225Z,38.00
2022-09-09T13:50:13.027Z,37.33
2022-09-09T13:52:39.544Z,38.00
2022-09-09T13:55:08.637Z,22.83
2022-09-09T13:57:35.097Z,35.00
2022-09-09T14:00:04.966Z,39.00
2022-09-09T14:05:18.630Z,36.00
2022-09-09T14:07:45.096Z,36.00
2022-09-09T14:10:11.635Z,36.00
2022-09-09T14:12:38.103Z,36.00
2022-09-09T14:15:04.574Z,37.00
2022-09-09T14:20:26.082Z,34.50
2022-09-09T14:22:52.602Z,35.00
2022-09-09T14:25:19.060Z,38.00
2022-09-09T14:27:46.497Z,33.67
2022-09-09T14:30:12.979Z,35.50
2022-09-09T14:35:25.251Z,35.00
2022-09-09T14:37:51.700Z,34.50
2022-09-09T14:40:18.438Z,35.50
2022-09-09T14:42:45.898Z,35.00
2022-09-09T14:45:12.349Z,33.50
2022-09-09T14:50:33.020Z,35.00
2022-09-09T14:52:59.489Z,35.00
2022-09-09T14:55:26.862Z,34.00
2022-09-09T14:57:54.229Z,33.00
2022-09-09T15:00:21.684Z,32.33
2022-09-09T15:05:32.090Z,32.00
2022-09-09T15:07:58.592Z,31.00
2022-09-09T15:10:26.126Z,32.00
2022-09-09T15:12:52.582Z,32.00
2022-09-09T15:15:20.037Z,31.00
2022-09-09T15:20:30.620Z,27.00
2022-09-09T15:22:57.101Z,29.00
2022-09-09T15:25:23.563Z,31.00
2022-09-09T15:27:50.089Z,32.50
2022-09-09T15:30:16.553Z,31.00
2022-09-09T15:35:37.088Z,26.00
2022-09-09T15:38:03.569Z,29.00
2022-09-09T15:40:30.963Z,31.33
2022-09-09T15:42:57.437Z,30.50
2022-09-09T15:45:23.890Z,29.50
2022-09-09T15:50:44.297Z,30.50
2022-09-09T15:53:10.919Z,28.00
2022-09-09T15:55:37.386Z,32.00
2022-09-09T15:58:03.868Z,33.50
2022-09-09T16:00:31.288Z,33.33
2022-09-09T16:05:41.614Z,41.50
2022-09-09T16:08:08.074Z,34.00
2022-09-09T16:10:34.659Z,36.00
2022-09-09T16:13:01.094Z,33.00
2022-09-09T16:15:27.562Z,37.00
2022-09-09T16:20:38.219Z,37.00
2022-09-09T16:23:04.722Z,35.50
2022-09-09T16:25:32.098Z,36.50
2022-09-09T16:27:58.560Z,35.00
2022-09-09T16:30:26.263Z,36.00
2022-09-09T16:35:46.956Z,34.00
2022-09-09T16:38:13.516Z,37.50
2022-09-09T16:40:39.959Z,36.00
2022-09-09T16:43:06.394Z,37.00
2022-09-09T16:45:32.902Z,37.00
2022-09-09T16:50:44.355Z,38.00
2022-09-09T16:53:10.807Z,33.50
2022-09-09T16:55:38.206Z,31.67
2022-09-09T16:58:04.687Z,34.00
2022-09-09T17:00:31.162Z,39.00
2022-09-09T17:05:51.254Z,31.00
2022-09-09T17:08:18.683Z,32.00
2022-09-09T17:10:45.144Z,31.50
2022-09-09T17:13:12.552Z,29.00
2022-09-09T17:15:39.071Z,29.00
2022-09-09T17:21:00.552Z,32.00
2022-09-09T17:23:27.032Z,28.50
2022-09-09T17:25:53.491Z,31.50
2022-09-09T17:28:20.919Z,30.00
2022-09-09T17:30:47.412Z,31.00
2022-09-09T17:35:59.719Z,34.00
2022-09-09T17:38:28.715Z,31.00
2022-09-09T17:40:55.364Z,29.50
2022-09-09T17:43:21.823Z,30.00
2022-09-09T17:45:48.287Z,30.50
2022-09-09T17:51:00.577Z,28.00
2022-09-09T17:53:27.947Z,27.50
2022-09-09T17:55:55.308Z,27.50
2022-09-09T17:58:21.768Z,31.00
2022-09-09T18:00:48.434Z,26.00
2022-09-09T18:06:00.782Z,23.67
2022-09-09T18:08:27.237Z,28.00
2022-09-09T18:10:53.709Z,26.00
2022-09-09T18:13:21.113Z,25.50
2022-09-09T18:15:49.765Z,25.00
2022-09-09T18:21:11.187Z,27.50
2022-09-09T18:23:37.649Z,26.00
2022-09-09T18:26:04.180Z,25.50
2022-09-09T18:28:30.761Z,27.50
2022-09-09T18:30:57.407Z,26.00
2022-09-09T18:36:18.861Z,25.00
2022-09-09T18:38:45.385Z,24.00
2022-09-09T18:41:12.836Z,23.50
2022-09-09T18:43:39.763Z,26.00
2022-09-09T18:46:06.347Z,21.50
2022-09-09T18:51:17.998Z,27.50
2022-09-09T18:53:44.466Z,23.00
2022-09-09T18:56:11.834Z,23.00
2022-09-09T18:58:38.386Z,24.50
2022-09-09T19:01:04.966Z,24.50
2022-09-09T19:06:15.445Z,28.00
2022-09-09T19:08:41.995Z,27.00
2022-09-09T19:11:08.636Z,24.00
2022-09-09T19:13:36.088Z,23.33
2022-09-09T19:16:03.592Z,20.33
2022-09-09T19:21:25.040Z,25.50
2022-09-09T19:23:51.484Z,22.00
2022-09-09T19:26:18.053Z,22.00
2022-09-09T19:28:45.495Z,22.00
2022-09-09T19:31:11.975Z,24.00
2022-09-09T19:36:32.759Z,28.50
2022-09-09T19:39:00.161Z,21.33
2022-09-09T19:41:26.673Z,21.50
2022-09-09T19:43:53.403Z,11.50
2022-09-09T19:46:19.944Z,23.50
2022-09-09T19:51:31.339Z,20.67
2022-09-09T19:53:57.785Z,20.00
2022-09-09T19:56:25.154Z,19.33
2022-09-09T19:58:51.620Z,23.00
2022-09-09T20:01:18.212Z,21.50
2022-09-09T20:06:31.015Z,20.33
2022-09-09T20:08:58.363Z,20.67
2022-09-09T20:11:25.743Z,21.67
2022-09-09T20:13:52.170Z,21.00
2022-09-09T20:16:19.563Z,18.67
2022-09-09T20:21:44.014Z,22.00
2022-09-09T20:24:13.629Z,21.00
2022-09-09T20:26:40.065Z,20.50
2022-09-09T20:29:06.500Z,18.00
2022-09-09T20:31:33.853Z,17.00
2022-09-09T20:36:55.374Z,15.67
2022-09-09T20:39:22.742Z,16.67
2022-09-09T20:41:49.139Z,16.50
2022-09-09T20:44:16.464Z,17.33
2022-09-09T20:46:43.827Z,17.00
2022-09-09T20:52:04.216Z,20.00
2022-09-09T20:54:31.514Z,17.00
2022-09-09T20:56:58.832Z,18.33
2022-09-09T20:59:25.252Z,14.50
2022-09-09T21:01:53.648Z,12.60
2022-09-09T21:07:05.316Z,15.00
2022-09-09T21:09:31.729Z,16.50
2022-09-09T21:12:00.012Z,15.00
2022-09-09T21:14:26.420Z,16.00
2022-09-09T21:16:52.852Z,14.50
2022-09-09T21:22:03.959Z,14.67
2022-09-09T21:24:30.339Z,14.50
2022-09-09T21:26:56.841Z,13.50
2022-09-09T21:29:23.346Z,12.00
2022-09-09T21:31:50.565Z,12.67
2022-09-09T21:34:16.982Z,15.50
2022-09-09T21:36:43.392Z,14.00
2022-09-09T21:39:10.730Z,15.33
2022-09-09T21:41:37.125Z,17.00
2022-09-09T21:44:04.400Z,15.33
2022-09-09T21:46:30.927Z,14.00
2022-09-09T21:48:57.355Z,14.00
2022-09-09T21:51:24.585Z,14.67
2022-09-09T21:53:50.990Z,14.00
2022-09-09T21:56:18.229Z,13.33
2022-09-09T21:58:44.685Z,14.00
2022-09-09T22:01:11.941Z,14.67
2022-09-09T22:03:38.605Z,12.50
2022-09-09T22:06:05.860Z,12.67
2022-09-09T22:08:33.098Z,13.67
2022-09-09T22:10:59.584Z,13.50
2022-09-09T22:13:26.059Z,12.50
2022-09-09T22:15:52.622Z,13.50
2022-09-09T22:18:19.900Z,14.00
2022-09-09T22:20:46.439Z,13.00
2022-09-09T22:23:12.815Z,12.50
2022-09-09T22:25:40.035Z,13.33
2022-09-09T22:28:07.294Z,12.33
2022-09-09T22:30:33.789Z,14.00
2022-09-09T22:33:02.080Z,12.60
2022-09-09T22:35:28.482Z,14.50
2022-09-09T22:37:54.971Z,12.00
2022-09-09T22:40:23.253Z,14.00
2022-09-09T22:42:52.758Z,12.00
2022-09-09T22:45:19.450Z,10.00
2022-09-09T22:47:47.835Z,12.20
2022-09-09T22:50:16.123Z,12.20
2022-09-09T22:52:44.388Z,13.00
2022-09-09T22:55:12.708Z,14.20
2022-09-09T22:57:39.107Z,11.00
2022-09-09T23:00:05.582Z,10.00
2022-09-09T23:02:31.953Z,8.00
2022-09-09T23:05:00.274Z,12.00
2022-09-09T23:10:14.289Z,9.00
2022-09-09T23:12:41.539Z,10.75
2022-09-09T23:15:08.741Z,11.00
2022-09-09T23:17:37.038Z,11.60
2022-09-09T23:20:05.303Z,10.40
2022-09-09T23:25:26.637Z,10.00
2022-09-09T23:27:53.870Z,10.25
2022-09-09T23:30:22.124Z,9.60
2022-09-09T23:32:50.441Z,10.60
2022-09-09T23:35:19.849Z,10.17
2022-09-09T23:40:40.018Z,10.00
2022-09-09T23:43:06.433Z,11.50
2022-09-09T23:45:34.693Z,10.40
2022-09-09T23:48:01.134Z,9.00
2022-09-09T23:50:27.543Z,9.00
2022-09-09T23:55:38.081Z,10.00
2022-09-09T23:58:07.238Z,10.00
